createdAt,value
2018-09-02T07:50:11.225Z,6.20
2018-09-02T07:51:11.495Z,6.30
2018-09-02T07:52:11.090Z,6.30
2018-09-02T07:53:11.207Z,6.40
2018-09-02T07:54:11.066Z,6.00
2018-09-02T07:55:11.042Z,6.60
2018-09-02T07:56:11.008Z,6.10
2018-09-02T07:57:11.013Z,6.00
2018-09-02T07:58:11.022Z,6.10
2018-09-02T07:59:10.960Z,5.30
2018-09-02T08:00:10.934Z,5.80
2018-09-02T08:01:10.918Z,5.70
2018-09-02T08:02:10.914Z,5.80
2018-09-02T08:03:10.904Z,5.60
2018-09-02T08:04:10.865Z,5.40
2018-09-02T08:05:10.859Z,5.10
2018-09-02T08:06:10.893Z,5.00
2018-09-02T08:07:10.822Z,5.10
2018-09-02T08:08:10.801Z,4.60
2018-09-02T08:09:10.802Z,5.30
2018-09-02T08:10:10.811Z,5.00
2018-09-02T08:11:10.739Z,4.80
2018-09-02T08:12:10.726Z,4.70
2018-09-02T08:13:10.705Z,4.60
2018-09-02T08:14:10.683Z,4.70
2018-09-02T08:15:10.686Z,4.90
2018-09-02T08:16:10.656Z,5.10
2018-09-02T08:17:10.739Z,4.80
2018-09-02T08:18:10.637Z,4.90
2018-09-02T08:19:10.628Z,4.70
2018-09-02T08:20:10.580Z,5.00
2018-09-02T08:21:10.570Z,3.90
2018-09-02T08:22:10.630Z,4.60
2018-09-02T08:23:10.529Z,4.40
2018-09-02T08:24:10.526Z,4.10
2018-09-02T08:25:10.500Z,4.10
2018-09-02T08:26:10.487Z,4.20
2018-09-02T08:27:10.462Z,4.00
2018-09-02T08:28:10.444Z,3.90
2018-09-02T08:29:10.428Z,4.30
2018-09-02T08:30:10.418Z,3.80
2018-09-02T08:31:10.434Z,4.10
2018-09-02T08:32:10.418Z,4.10
2018-09-02T08:33:10.482Z,4.20
2018-09-02T08:34:10.362Z,3.70
2018-09-02T08:35:10.324Z,3.90
2018-09-02T08:36:10.313Z,3.90
2018-09-02T08:37:10.305Z,3.80
2018-09-02T08:38:10.274Z,3.40
2018-09-02T08:39:10.277Z,3.70
2018-09-02T08:40:10.245Z,4.00
2018-09-02T08:41:10.224Z,3.20
2018-09-02T08:42:10.238Z,3.30
2018-09-02T08:43:10.195Z,3.30
2018-09-02T08:44:10.247Z,3.30
2018-09-02T08:45:10.178Z,3.30
2018-09-02T08:46:10.164Z,3.00
2018-09-02T08:47:10.147Z,3.60
2018-09-02T08:48:10.110Z,3.70
2018-09-02T08:49:10.132Z,3.50
2018-09-02T08:50:10.080Z,3.40
2018-09-02T08:51:10.066Z,3.20
2018-09-02T08:52:10.061Z,3.40
2018-09-02T08:53:10.067Z,3.60
2018-09-02T08:54:10.045Z,3.80
2018-09-02T08:55:10.028Z,3.40
2018-09-02T08:56:10.034Z,3.20
2018-09-02T08:57:09.979Z,3.10
2018-09-02T08:58:09.965Z,3.20
2018-09-02T08:59:09.962Z,3.30
2018-09-02T09:00:09.920Z,3.40
2018-09-02T09:01:09.908Z,2.80
2018-09-02T09:02:09.897Z,2.80
2018-09-02T09:03:09.863Z,3.20
2018-09-02T09:04:09.854Z,3.50
2018-09-02T09:05:09.837Z,3.60
2018-09-02T09:06:09.816Z,3.60
2018-09-02T09:07:09.825Z,3.20
2018-09-02T09:08:09.858Z,2.90
2018-09-02T09:09:09.882Z,3.20
2018-09-02T09:10:09.759Z,3.50
2018-09-02T09:11:09.764Z,3.10
2018-09-02T09:12:09.739Z,3.30
2018-09-02T09:13:09.701Z,2.80
2018-09-02T09:14:09.774Z,3.00
2018-09-02T09:15:09.667Z,3.10
2018-09-02T09:16:09.682Z,2.70
2018-09-02T09:17:09.748Z,3.10
2018-09-02T09:18:09.631Z,2.90
2018-09-02T09:19:09.605Z,3.00
2018-09-02T09:20:09.654Z,2.90
2018-09-02T09:21:09.573Z,3.00
2018-09-02T09:22:09.647Z,2.80
2018-09-02T09:23:09.542Z,2.80
2018-09-02T09:24:09.627Z,2.80
2018-09-02T09:25:09.581Z,2.90
2018-09-02T09:26:09.509Z,3.00
2018-09-02T09:27:09.482Z,2.90
2018-09-02T09:29:30.893Z,2.70
2018-09-02T09:30:30.532Z,2.60
2018-09-02T09:35:08.266Z,2.40
2018-09-02T09:35:35.681Z,2.60
2018-09-02T09:37:30.077Z,2.80
2018-09-02T09:38:30.039Z,2.80
2018-09-02T09:39:30.014Z,2.70
2018-09-02T09:40:30.030Z,2.50
2018-09-02T09:41:29.992Z,2.50
2018-09-02T09:42:29.971Z,2.60
2018-09-02T09:43:29.941Z,2.50
2018-09-02T09:44:29.932Z,2.60
2018-09-02T09:45:29.916Z,2.60
2018-09-02T09:46:29.899Z,2.60
2018-09-02T09:47:29.886Z,2.30
2018-09-02T09:48:29.867Z,2.50
2018-09-02T09:49:29.994Z,2.40
2018-09-02T09:50:29.850Z,2.30
2018-09-02T09:51:29.822Z,2.20
2018-09-02T09:52:29.808Z,2.50
2018-09-02T09:53:29.864Z,2.20
2018-09-02T09:54:29.789Z,2.20
2018-09-02T09:55:29.837Z,2.30
2018-09-02T09:56:29.759Z,2.50
2018-09-02T09:57:29.725Z,2.20
2018-09-02T09:58:29.710Z,2.40
2018-09-02T09:59:29.702Z,2.20
2018-09-02T10:00:29.680Z,2.20
2018-09-02T10:01:29.720Z,2.50
2018-09-02T10:02:29.655Z,2.60
2018-09-02T10:03:29.695Z,2.10
2018-09-02T10:04:29.688Z,2.30
2018-09-02T10:05:29.651Z,2.20
2018-09-02T10:06:29.608Z,2.70
2018-09-02T10:07:29.587Z,2.00
2018-09-02T10:08:29.566Z,2.60
2018-09-02T10:09:29.541Z,2.50
2018-09-02T10:10:29.675Z,2.40
2018-09-02T10:11:29.526Z,2.40
2018-09-02T10:12:29.608Z,2.20
2018-09-02T10:13:29.508Z,2.20
2018-09-02T10:14:29.475Z,2.30
2018-09-02T10:15:29.479Z,2.20
2018-09-02T10:16:29.448Z,2.10
2018-09-02T10:17:29.422Z,2.10
2018-09-02T10:18:29.424Z,2.50
2018-09-02T10:19:29.395Z,2.20
2018-09-02T10:20:29.389Z,2.00
2018-09-02T10:21:29.387Z,2.20
2018-09-02T10:22:29.371Z,2.20
2018-09-02T10:23:29.342Z,2.20
2018-09-02T10:24:29.315Z,2.00
2018-09-02T10:25:29.322Z,2.40
2018-09-02T10:26:29.285Z,2.00
2018-09-02T10:27:29.324Z,2.20
2018-09-02T10:28:29.255Z,2.30
2018-09-02T10:29:29.249Z,2.30
2018-09-02T10:30:29.253Z,2.10
2018-09-02T10:31:29.212Z,2.20
2018-09-02T10:32:29.199Z,2.20
2018-09-02T10:33:29.253Z,2.30
2018-09-02T10:34:29.166Z,2.40
2018-09-02T10:35:29.156Z,2.40
2018-09-02T10:36:29.160Z,2.10
2018-09-02T10:37:29.148Z,2.20
2018-09-02T10:38:29.108Z,2.10
2018-09-02T10:39:29.103Z,2.50
2018-09-02T10:40:29.100Z,2.60
2018-09-02T10:41:29.128Z,2.40
2018-09-02T10:42:29.057Z,2.20
2018-09-02T10:43:29.060Z,2.20
2018-09-02T10:44:29.043Z,2.40
2018-09-02T10:45:29.005Z,2.50
2018-09-02T10:46:29.024Z,2.30
2018-09-02T10:47:28.977Z,2.40
2018-09-02T10:48:28.965Z,2.10
2018-09-02T10:49:28.949Z,1.90
2018-09-02T10:50:28.932Z,2.30
2018-09-02T10:51:28.948Z,2.40
2018-09-02T10:52:28.923Z,2.50
2018-09-02T10:53:28.924Z,2.10
2018-09-02T10:54:28.871Z,2.30
2018-09-02T10:55:28.869Z,2.70
2018-09-02T10:56:28.845Z,2.30
2018-09-02T10:57:28.835Z,2.30
2018-09-02T10:58:28.812Z,2.10
2018-09-02T10:59:28.873Z,2.30
2018-09-02T11:00:28.801Z,2.80
2018-09-02T11:01:28.777Z,2.20
2018-09-02T11:02:28.768Z,2.60
2018-09-02T11:03:28.746Z,2.60
2018-09-02T11:04:28.727Z,2.60
2018-09-02T11:05:28.721Z,2.50
2018-09-02T11:06:28.699Z,2.50
2018-09-02T11:07:28.684Z,2.10
2018-09-02T11:08:28.669Z,2.30
2018-09-02T11:09:28.659Z,2.40
2018-09-02T11:10:28.655Z,2.40
2018-09-02T11:11:28.666Z,2.20
2018-09-02T11:12:28.635Z,2.10
2018-09-02T11:13:28.620Z,2.20
2018-09-02T11:14:28.586Z,2.20
2018-09-02T11:15:28.577Z,1.90
2018-09-02T11:16:28.583Z,2.20
2018-09-02T11:17:28.540Z,2.20
2018-09-02T11:18:28.529Z,2.20
2018-09-02T11:19:28.534Z,2.40
2018-09-02T11:20:28.514Z,2.10
2018-09-02T11:21:28.483Z,2.20
2018-09-02T11:22:28.471Z,1.80
2018-09-02T11:23:28.472Z,2.40
2018-09-02T11:24:28.441Z,2.50
2018-09-02T11:25:28.424Z,2.10
2018-09-02T11:26:28.409Z,2.50
2018-09-02T11:27:28.434Z,2.10
2018-09-02T11:28:28.403Z,2.10
2018-09-02T11:29:28.369Z,2.20
2018-09-02T11:30:28.354Z,2.20
2018-09-02T11:31:28.363Z,2.10
2018-09-02T11:32:28.325Z,2.10
2018-09-02T11:33:28.325Z,2.20
2018-09-02T11:34:28.324Z,2.20
2018-09-02T11:35:28.286Z,2.30
2018-09-02T11:36:28.304Z,1.90
2018-09-02T11:37:28.256Z,2.20
2018-09-02T11:38:28.247Z,2.40
2018-09-02T11:39:28.233Z,2.20
2018-09-02T11:40:28.214Z,2.20
2018-09-02T11:41:28.201Z,2.10
2018-09-02T11:42:28.187Z,2.20
2018-09-02T11:43:28.171Z,2.10
2018-09-02T11:44:28.169Z,2.50
2018-09-02T11:45:28.150Z,2.30
2018-09-02T11:46:28.127Z,2.20
2018-09-02T11:47:28.123Z,2.50
2018-09-02T11:48:28.127Z,2.20
2018-09-02T11:49:28.090Z,2.10
2018-09-02T11:50:28.106Z,2.70
2018-09-02T11:51:28.059Z,2.00
2018-09-02T11:52:28.058Z,2.50
2018-09-02T11:53:28.028Z,2.30
2018-09-02T11:54:28.064Z,2.40
2018-09-02T11:55:28.016Z,2.30
2018-09-02T11:56:28.006Z,2.30
2018-09-02T11:57:27.988Z,2.50
2018-09-02T11:58:27.969Z,2.40
2018-09-02T11:59:27.999Z,2.30
2018-09-02T12:00:27.971Z,2.10
2018-09-02T12:01:27.924Z,2.30
2018-09-02T12:02:27.916Z,2.30
2018-09-02T12:03:27.911Z,2.40
2018-09-02T12:04:27.932Z,2.50
2018-09-02T12:05:27.928Z,2.20
2018-09-02T12:06:27.854Z,2.40
2018-09-02T12:07:27.856Z,2.50
2018-09-02T12:08:27.821Z,2.20
2018-09-02T12:09:27.826Z,2.30
2018-09-02T12:10:27.817Z,2.10
2018-09-02T12:11:27.805Z,2.50
2018-09-02T12:12:27.769Z,2.40
2018-09-02T12:13:27.751Z,2.50
2018-09-02T12:14:27.741Z,2.70
2018-09-02T12:15:27.746Z,2.30
2018-09-02T12:16:27.717Z,2.10
2018-09-02T12:17:27.751Z,2.10
2018-09-02T12:18:27.712Z,2.00
2018-09-02T12:19:27.683Z,2.40
2018-09-02T12:20:27.675Z,2.40
2018-09-02T12:21:27.644Z,2.40
2018-09-02T12:22:27.631Z,2.40
2018-09-02T12:23:27.652Z,2.50
2018-09-02T12:24:27.604Z,2.10
2018-09-02T12:25:27.595Z,2.40
2018-09-02T12:26:27.598Z,2.40
2018-09-02T12:27:27.585Z,2.10
2018-09-02T12:28:27.551Z,2.10
2018-09-02T12:29:27.541Z,2.10
2018-09-02T12:30:27.522Z,2.20
2018-09-02T12:31:27.583Z,2.30
2018-09-02T12:32:27.512Z,2.50
2018-09-02T12:33:27.499Z,2.10
2018-09-02T12:34:27.469Z,2.00
2018-09-02T12:35:27.476Z,2.30
2018-09-02T12:36:27.450Z,2.10
2018-09-02T12:37:27.471Z,2.10
2018-09-02T12:38:27.451Z,1.80
2018-09-02T12:42:33.589Z,2.30
2018-09-02T12:43:33.575Z,2.20
2018-09-02T12:44:33.671Z,2.00
2018-09-02T12:45:33.547Z,2.20
2018-09-02T12:46:33.561Z,2.40
2018-09-02T12:47:33.577Z,2.40
2018-09-02T12:48:33.566Z,2.10
2018-09-02T12:49:33.507Z,2.30
2018-09-02T12:50:33.498Z,2.60
2018-09-02T12:51:34.138Z,2.40
2018-09-02T12:52:33.456Z,2.20
2018-09-02T12:53:33.479Z,2.20
2018-09-02T12:54:33.444Z,2.20
2018-09-02T12:55:33.412Z,2.40
2018-09-02T12:56:33.404Z,2.60
2018-09-02T12:57:33.391Z,2.20
2018-09-02T12:58:33.386Z,2.10
2018-09-02T12:59:33.376Z,2.00
2018-09-02T13:00:33.353Z,2.40
2018-09-02T13:01:33.344Z,2.00
2018-09-02T13:02:33.329Z,2.20
2018-09-02T13:03:33.364Z,2.00
2018-09-02T13:04:33.297Z,2.30
2018-09-02T13:05:33.287Z,2.30
2018-09-02T13:06:33.280Z,2.30
2018-09-02T13:07:33.263Z,2.30
2018-09-02T13:08:33.256Z,2.50
2018-09-02T13:09:33.331Z,2.10
2018-09-02T13:10:33.247Z,2.30
2018-09-02T13:11:33.247Z,2.50
2018-09-02T13:12:33.232Z,2.00
2018-09-02T13:13:33.204Z,2.20
2018-09-02T13:14:33.176Z,2.10
2018-09-02T13:15:33.180Z,2.00
2018-09-02T13:16:33.152Z,1.80
2018-09-02T13:17:33.145Z,1.90
2018-09-02T13:18:33.134Z,2.10
2018-09-02T13:19:33.144Z,2.20
2018-09-02T13:20:33.120Z,2.10
2018-09-02T13:21:33.108Z,2.00
2018-09-02T13:22:33.082Z,2.30
2018-09-02T13:23:33.089Z,2.10
2018-09-02T13:24:33.108Z,2.00
2018-09-02T13:25:33.055Z,2.10
2018-09-02T13:26:33.058Z,2.20
2018-09-02T13:27:33.058Z,2.00
2018-09-02T13:28:33.045Z,2.10
2018-09-02T13:29:33.013Z,2.10
2018-09-02T13:30:33.019Z,2.00
2018-09-02T13:31:33.001Z,2.30
2018-09-02T13:32:33.052Z,2.30
2018-09-02T13:33:33.041Z,2.00
2018-09-02T13:34:32.967Z,2.00
2018-09-02T13:35:32.984Z,2.00
2018-09-02T13:36:32.957Z,2.00
2018-09-02T13:37:32.971Z,1.90
2018-09-02T13:38:32.955Z,2.00
2018-09-02T13:39:32.952Z,2.10
2018-09-02T13:40:32.935Z,2.10
2018-09-02T13:41:32.932Z,2.00
2018-09-02T13:42:32.946Z,2.30
2018-09-02T13:43:32.903Z,2.00
2018-09-02T13:44:32.887Z,2.20
2018-09-02T13:45:32.919Z,2.20
2018-09-02T13:46:32.879Z,2.30
2018-09-02T13:47:32.882Z,2.30
2018-09-02T13:48:32.941Z,2.20
2018-09-02T13:49:32.889Z,2.10
2018-09-02T13:50:32.850Z,2.20
2018-09-02T13:51:32.885Z,2.00
2018-09-02T13:52:32.833Z,2.10
2018-09-02T13:53:32.861Z,2.50
2018-09-02T13:54:32.845Z,2.20
2018-09-02T13:55:32.815Z,2.40
2018-09-02T13:56:32.809Z,2.50
2018-09-02T13:57:32.809Z,2.10
2018-09-02T13:58:32.808Z,2.10
2018-09-02T13:59:32.877Z,2.20
2018-09-02T14:00:32.791Z,2.20
2018-09-02T14:01:32.773Z,2.00
2018-09-02T14:02:32.781Z,2.10
2018-09-02T14:03:32.763Z,2.30
2018-09-02T14:04:32.766Z,2.30
2018-09-02T14:05:32.777Z,2.10
2018-09-02T14:06:32.736Z,2.10
2018-09-02T14:07:32.748Z,2.00
2018-09-02T14:08:32.733Z,2.10
2018-09-02T14:09:32.738Z,2.20
2018-09-02T14:10:32.695Z,2.20
2018-09-02T14:11:32.694Z,2.30
2018-09-02T14:12:32.711Z,2.00
2018-09-02T14:13:32.696Z,2.10
2018-09-02T14:14:32.674Z,2.20
2018-09-02T14:15:32.661Z,1.90
2018-09-02T14:16:32.680Z,2.30
2018-09-02T14:17:32.637Z,2.30
2018-09-02T14:18:32.681Z,2.10
2018-09-02T14:19:32.690Z,2.30
2018-09-02T14:20:32.643Z,2.20
2018-09-02T14:21:32.595Z,2.10
2018-09-02T14:22:32.618Z,2.10
2018-09-02T14:23:32.582Z,1.90
2018-09-02T14:24:32.594Z,2.00
2018-09-02T14:25:32.593Z,2.20
2018-09-02T14:26:32.569Z,1.90
2018-09-02T14:27:32.572Z,2.10
2018-09-02T14:28:32.657Z,2.20
2018-09-02T14:29:32.527Z,2.20
2018-09-02T14:30:32.537Z,2.20
2018-09-02T14:31:32.537Z,2.00
2018-09-02T14:32:32.490Z,2.20
2018-09-02T14:33:32.481Z,2.30
2018-09-02T14:34:32.510Z,2.00
2018-09-02T14:35:32.497Z,2.40
2018-09-02T14:36:32.485Z,1.90
2018-09-02T14:37:32.461Z,2.40
2018-09-02T14:38:32.442Z,2.10
2018-09-02T14:39:32.487Z,2.40
2018-09-02T14:40:32.424Z,2.40
2018-09-02T14:41:32.509Z,2.30
2018-09-02T14:42:32.382Z,2.20
2018-09-02T14:43:32.383Z,2.60
2018-09-02T14:44:32.366Z,2.20
2018-09-02T14:45:32.351Z,2.10
2018-09-02T14:46:32.363Z,2.20
2018-09-02T14:47:32.328Z,2.30
2018-09-02T14:48:32.351Z,2.40
2018-09-02T14:49:32.303Z,2.50
2018-09-02T14:50:32.301Z,2.60
2018-09-02T14:51:32.284Z,2.40
2018-09-02T14:52:32.264Z,2.40
2018-09-02T14:53:32.266Z,2.20
2018-09-02T14:54:32.240Z,2.30
2018-09-02T14:55:32.237Z,1.90
2018-09-02T14:56:32.286Z,2.20
2018-09-02T14:57:32.208Z,2.40
2018-09-02T14:58:32.189Z,2.00
2018-09-02T14:59:32.177Z,2.20
2018-09-02T15:00:32.188Z,2.40
2018-09-02T15:01:32.180Z,2.10
2018-09-02T15:02:32.171Z,2.30
2018-09-02T15:03:32.224Z,2.00
2018-09-02T15:04:32.155Z,2.20
2018-09-02T15:05:32.121Z,2.10
2018-09-02T15:06:32.106Z,2.20
2018-09-02T15:07:32.076Z,2.30
2018-09-02T15:08:32.075Z,2.10
2018-09-02T15:09:32.089Z,2.40
2018-09-02T15:10:32.045Z,2.60
2018-09-02T15:11:32.189Z,2.30
2018-09-02T15:12:32.058Z,2.00
2018-09-02T15:13:32.045Z,2.20
2018-09-02T15:14:32.002Z,2.10
2018-09-02T15:15:31.981Z,2.20
2018-09-02T15:16:31.970Z,2.10
2018-09-02T15:17:31.968Z,2.30
2018-09-02T15:18:31.985Z,2.30
2018-09-02T15:19:31.938Z,2.20
2018-09-02T15:20:31.926Z,2.20
2018-09-02T15:21:31.928Z,2.00
2018-09-02T15:22:31.903Z,2.40
2018-09-02T15:23:31.889Z,2.20
2018-09-02T15:24:31.873Z,2.20
2018-09-02T15:25:31.861Z,2.00
2018-09-02T15:26:31.847Z,2.20
2018-09-02T15:27:31.829Z,2.30
2018-09-02T15:28:31.830Z,2.30
2018-09-02T15:29:31.822Z,2.40
2018-09-02T15:30:31.795Z,2.50
2018-09-02T15:31:31.792Z,2.30
2018-09-02T15:32:31.782Z,1.90
2018-09-02T15:33:31.764Z,2.40
2018-09-02T15:34:31.777Z,2.40
2018-09-02T15:35:31.773Z,2.20
2018-09-02T15:36:31.716Z,2.30
2018-09-02T15:37:31.788Z,2.30
2018-09-02T15:38:31.696Z,2.00
2018-09-02T15:39:31.754Z,2.20
2018-09-02T15:40:31.671Z,2.20
2018-09-02T15:41:31.648Z,2.10
2018-09-02T15:42:31.640Z,2.70
2018-09-02T15:43:31.622Z,2.40
2018-09-02T15:44:31.631Z,2.70
2018-09-02T15:45:31.595Z,2.30
2018-09-02T15:46:31.613Z,2.10
2018-09-02T15:47:31.622Z,2.50
2018-09-02T15:48:31.592Z,5.50
2018-09-02T15:49:31.589Z,3.30
2018-09-02T15:50:31.567Z,2.60
2018-09-02T15:51:31.547Z,2.30
2018-09-02T15:52:31.516Z,2.30
2018-09-02T15:53:31.585Z,2.20
2018-09-02T15:54:31.524Z,2.10
2018-09-02T15:55:31.466Z,2.30
2018-09-02T15:56:31.493Z,2.40
2018-09-02T15:57:31.463Z,2.40
2018-09-02T15:58:31.433Z,2.60
2018-09-02T15:59:31.443Z,2.50
2018-09-02T16:00:31.403Z,2.40
2018-09-02T16:01:31.405Z,2.40
2018-09-02T16:02:31.370Z,2.50
2018-09-02T16:03:31.361Z,2.50
2018-09-02T16:04:31.348Z,2.70
2018-09-02T16:05:31.372Z,2.30
2018-09-02T16:06:31.332Z,2.40
2018-09-02T16:07:31.332Z,2.20
2018-09-02T16:08:31.317Z,2.10
2018-09-02T16:09:31.286Z,2.20
2018-09-02T16:10:31.298Z,2.00
2018-09-02T16:11:31.291Z,2.40
2018-09-02T16:12:31.267Z,2.40
2018-09-02T16:13:31.274Z,2.30
2018-09-02T16:14:31.210Z,2.50
2018-09-02T16:15:31.199Z,2.10
2018-09-02T16:16:31.199Z,2.40
2018-09-02T16:17:31.220Z,2.50
2018-09-02T16:18:31.171Z,2.10
2018-09-02T16:19:31.142Z,2.40
2018-09-02T16:20:31.165Z,2.50
2018-09-02T16:21:31.117Z,2.40
2018-09-02T16:22:31.108Z,2.10
2018-09-02T16:23:31.111Z,2.30
2018-09-02T16:24:31.089Z,2.40
2018-09-02T16:25:31.086Z,2.40
2018-09-02T16:26:31.075Z,2.20
2018-09-02T16:27:31.082Z,2.10
2018-09-02T16:28:31.089Z,2.30
2018-09-02T16:29:31.056Z,2.10
2018-09-02T16:30:30.994Z,2.10
2018-09-02T16:31:31.009Z,2.20
2018-09-02T16:32:30.970Z,2.00
2018-09-02T16:33:30.954Z,2.00
2018-09-02T16:34:30.951Z,2.10
2018-09-02T16:35:30.953Z,2.20
2018-09-02T16:36:30.914Z,2.50
2018-09-02T16:37:30.905Z,2.10
2018-09-02T16:38:30.895Z,2.30
2018-09-02T16:39:30.871Z,2.10
2018-09-02T16:40:30.860Z,2.50
2018-09-02T16:41:30.941Z,2.20
2018-09-02T16:42:30.878Z,2.40
2018-09-02T16:43:30.827Z,2.10
2018-09-02T16:44:30.830Z,2.10
2018-09-02T16:45:30.821Z,2.10
2018-09-02T16:46:30.782Z,2.20
2018-09-02T16:47:30.787Z,2.30
2018-09-02T16:48:30.763Z,2.20
2018-09-02T16:49:30.736Z,2.20
2018-09-02T16:50:30.765Z,2.30
2018-09-02T16:51:30.719Z,2.20
2018-09-02T16:52:30.705Z,2.20
2018-09-02T16:53:30.715Z,2.20
2018-09-02T16:54:30.676Z,2.70
2018-09-02T16:55:30.658Z,2.50
2018-09-02T16:56:30.647Z,2.50
2018-09-02T16:57:30.641Z,2.40
2018-09-02T16:58:30.734Z,2.40
2018-09-02T16:59:30.612Z,2.30
2018-09-02T17:00:30.604Z,2.30
2018-09-02T17:01:30.645Z,2.10
2018-09-02T17:02:30.571Z,2.20
2018-09-02T17:03:30.561Z,2.40
2018-09-02T17:04:30.575Z,2.20
2018-09-02T17:05:30.532Z,2.30
2018-09-02T17:06:30.526Z,2.20
2018-09-02T17:07:30.530Z,2.20
2018-09-02T17:08:30.481Z,2.30
2018-09-02T17:09:30.540Z,2.30
2018-09-02T17:10:30.459Z,2.30
2018-09-02T17:11:30.474Z,2.40
2018-09-02T17:12:30.563Z,2.20
2018-09-02T17:13:30.460Z,2.30
2018-09-02T17:14:30.446Z,2.50
2018-09-02T17:15:30.427Z,2.20
2018-09-02T17:16:30.388Z,2.30
2018-09-02T17:17:30.365Z,2.30
2018-09-02T17:18:30.379Z,2.20
2018-09-02T17:19:30.333Z,2.00
2018-09-02T17:20:30.346Z,2.30
2018-09-02T17:21:30.324Z,2.20
2018-09-02T17:22:30.316Z,1.90
2018-09-02T17:23:30.294Z,2.20
2018-09-02T17:24:30.270Z,2.20
2018-09-02T17:25:30.272Z,2.10
2018-09-02T17:26:30.265Z,2.40
2018-09-02T17:27:30.233Z,2.10
2018-09-02T17:28:30.215Z,2.30
2018-09-02T17:29:30.262Z,2.30
2018-09-02T17:30:30.187Z,2.10
2018-09-02T17:31:30.234Z,2.20
2018-09-02T17:32:30.215Z,2.20
2018-09-02T17:33:30.175Z,2.10
2018-09-02T17:34:30.155Z,2.20
2018-09-02T17:35:30.123Z,2.80
2018-09-02T17:36:30.105Z,2.20
2018-09-02T17:37:30.101Z,2.00
2018-09-02T17:38:30.128Z,2.10
2018-09-02T17:39:30.063Z,2.30
2018-09-02T17:40:30.051Z,2.00
2018-09-02T17:41:30.030Z,2.20
2018-09-02T17:42:30.022Z,1.90
2018-09-02T17:43:30.023Z,2.00
2018-09-02T17:44:30.013Z,2.00
2018-09-02T17:45:29.984Z,2.00
2018-09-02T17:46:29.983Z,2.10
2018-09-02T17:47:29.970Z,1.90
2018-09-02T17:48:29.949Z,2.20
2018-09-02T17:49:29.995Z,1.90
2018-09-02T17:50:29.914Z,2.10
2018-09-02T17:51:29.902Z,1.90
2018-09-02T17:52:29.892Z,2.10
2018-09-02T17:53:29.871Z,2.10
2018-09-02T17:54:34.746Z,1.90
2018-09-02T17:57:02.948Z,1.80
2018-09-02T17:58:02.927Z,1.90
2018-09-02T17:59:02.922Z,2.10
2018-09-02T18:00:02.884Z,2.20
2018-09-02T18:01:03.540Z,1.90
2018-09-02T18:02:02.872Z,2.20
2018-09-02T18:03:02.876Z,2.30
2018-09-02T18:04:02.833Z,2.00
2018-09-02T18:05:02.809Z,2.20
2018-09-02T18:06:02.794Z,2.40
2018-09-02T18:07:02.779Z,2.10
2018-09-02T18:08:02.773Z,2.10
2018-09-02T18:09:02.755Z,2.20
2018-09-02T18:10:02.731Z,2.20
2018-09-02T18:11:02.728Z,2.10
2018-09-02T18:12:02.712Z,2.30
2018-09-02T18:13:02.691Z,2.10
2018-09-02T18:14:02.677Z,2.00
2018-09-02T18:15:02.668Z,1.70
2018-09-02T18:16:02.851Z,1.90
2018-09-02T18:17:02.657Z,2.30
2018-09-02T18:18:02.636Z,1.90
2018-09-02T18:19:02.605Z,2.10
2018-09-02T18:20:02.647Z,2.20
2018-09-02T18:21:02.596Z,1.90
2018-09-02T18:22:02.573Z,2.20
2018-09-02T18:23:02.571Z,2.00
2018-09-02T18:24:02.528Z,2.00
2018-09-02T18:25:02.517Z,2.10
2018-09-02T18:26:02.519Z,2.00
2018-09-02T18:27:02.492Z,2.20
2018-09-02T18:28:02.503Z,2.30
2018-09-02T18:29:02.459Z,2.00
2018-09-02T18:30:02.444Z,2.00
2018-09-02T18:31:02.442Z,2.30
2018-09-02T18:32:02.410Z,2.00
2018-09-02T18:33:02.391Z,2.30
2018-09-02T18:34:02.379Z,2.10
2018-09-02T18:35:02.368Z,2.10
2018-09-02T18:36:02.437Z,2.20
2018-09-02T18:37:02.333Z,2.00
2018-09-02T18:38:02.332Z,2.10
2018-09-02T18:39:02.412Z,2.10
2018-09-02T18:40:02.297Z,2.40
2018-09-02T18:41:02.276Z,2.20
2018-09-02T18:42:02.255Z,2.00
2018-09-02T18:43:02.240Z,2.00
2018-09-02T18:44:02.235Z,1.90
2018-09-02T18:45:02.211Z,2.20
2018-09-02T18:46:02.202Z,2.20
2018-09-02T18:47:02.181Z,2.00
2018-09-02T18:48:02.181Z,1.90
2018-09-02T18:49:02.160Z,2.00
2018-09-02T18:50:02.140Z,1.80
2018-09-02T18:51:02.149Z,2.30
2018-09-02T18:52:02.207Z,2.10
2018-09-02T18:53:02.176Z,2.30
2018-09-02T18:54:02.105Z,1.80
2018-09-02T18:55:02.106Z,2.10
2018-09-02T18:56:02.054Z,2.10
2018-09-02T18:57:02.081Z,1.90
2018-09-02T18:58:02.089Z,2.10
2018-09-02T18:59:01.993Z,2.10
2018-09-02T19:00:01.980Z,2.00
2018-09-02T19:01:01.983Z,2.00
2018-09-02T19:02:01.982Z,1.90
2018-09-02T19:03:02.006Z,2.00
2018-09-02T19:04:01.949Z,2.10
2018-09-02T19:05:01.909Z,2.20
2018-09-02T19:06:01.884Z,2.10
2018-09-02T19:07:01.885Z,2.40
2018-09-02T19:08:01.867Z,2.30
2018-09-02T19:09:01.877Z,2.30
2018-09-02T19:10:01.865Z,2.10
2018-09-02T19:11:01.805Z,1.90
2018-09-02T19:12:01.827Z,1.80
2018-09-02T19:13:01.830Z,2.40
2018-09-02T19:14:01.780Z,2.00
2018-09-02T19:15:01.757Z,1.80
2018-09-02T19:16:01.786Z,1.70
2018-09-02T19:17:01.778Z,2.00
2018-09-02T19:18:01.712Z,2.00
2018-09-02T19:19:01.728Z,2.00
2018-09-02T19:20:01.703Z,2.10
2018-09-02T19:21:01.677Z,2.00
2018-09-02T19:22:01.640Z,2.10
2018-09-02T19:23:01.649Z,2.00
2018-09-02T19:24:01.692Z,2.00
2018-09-02T19:25:01.604Z,1.90
2018-09-02T19:26:01.584Z,2.00
2018-09-02T19:27:01.554Z,1.60
2018-09-02T19:28:01.571Z,2.10
2018-09-02T19:29:01.528Z,1.90
2018-09-02T19:30:01.522Z,2.00
2018-09-02T19:31:01.498Z,2.10
2018-09-02T19:32:01.496Z,2.30
2018-09-02T19:33:01.472Z,2.20
2018-09-02T19:34:01.466Z,2.00
2018-09-02T19:35:01.466Z,2.20
2018-09-02T19:36:01.416Z,2.20
2018-09-02T19:37:01.403Z,2.10
2018-09-02T19:38:01.422Z,2.00
2018-09-02T19:39:01.367Z,2.00
2018-09-02T19:40:01.353Z,2.10
2018-09-02T19:41:01.366Z,2.00
2018-09-02T19:42:01.348Z,1.90
2018-09-02T19:43:01.301Z,1.90
2018-09-02T19:44:01.287Z,2.00
2018-09-02T19:45:01.270Z,1.90
2018-09-02T19:46:01.261Z,2.10
2018-09-02T19:47:01.306Z,2.10
2018-09-02T19:48:01.275Z,1.90
2018-09-02T19:49:01.205Z,1.90
2018-09-02T19:50:01.208Z,2.00
2018-09-02T19:51:01.187Z,1.90
2018-09-02T19:52:01.232Z,1.90
2018-09-02T19:53:01.141Z,2.20
2018-09-02T19:54:01.162Z,1.90
2018-09-02T19:55:01.168Z,2.20
2018-09-02T19:56:01.093Z,2.00
2018-09-02T19:57:01.099Z,1.90
2018-09-02T19:58:01.154Z,2.20
2018-09-02T19:59:01.062Z,2.10
2018-09-02T20:00:01.059Z,2.10
2018-09-02T20:01:01.021Z,2.20
2018-09-02T20:02:01.040Z,2.00
2018-09-02T20:03:01.008Z,2.10
2018-09-02T20:04:00.971Z,2.10
2018-09-02T20:05:00.977Z,2.00
2018-09-02T20:06:01.011Z,1.90
2018-09-02T20:07:00.927Z,2.00
2018-09-02T20:08:00.895Z,1.80
2018-09-02T20:09:00.909Z,1.80
2018-09-02T20:10:00.870Z,1.90
2018-09-02T20:11:00.856Z,2.10
2018-09-02T20:12:00.872Z,2.30
2018-09-02T20:13:00.818Z,2.10
2018-09-02T20:14:00.813Z,2.20
2018-09-02T20:15:00.788Z,1.90
2018-09-02T20:16:00.783Z,2.30
2018-09-02T20:17:00.753Z,2.00
2018-09-02T20:18:00.756Z,2.30
2018-09-02T20:19:00.769Z,2.10
2018-09-02T20:20:00.717Z,2.10
2018-09-02T20:21:00.689Z,1.90
2018-09-02T20:22:00.707Z,2.30
2018-09-02T20:23:00.655Z,2.20
2018-09-02T20:24:00.757Z,1.90
2018-09-02T20:25:00.634Z,2.40
2018-09-02T20:26:00.652Z,1.90
2018-09-02T20:27:00.595Z,1.90
2018-09-02T20:28:00.583Z,1.90
2018-09-02T20:29:00.559Z,2.30
2018-09-02T20:30:00.549Z,2.20
2018-09-02T20:31:00.564Z,2.10
2018-09-02T20:32:00.523Z,2.20
2018-09-02T20:33:00.494Z,2.00
2018-09-02T20:34:00.481Z,2.10
2018-09-02T20:35:00.464Z,2.10
2018-09-02T20:36:00.513Z,2.50
2018-09-02T20:37:00.427Z,2.00
2018-09-02T20:38:00.415Z,2.20
2018-09-02T20:39:00.405Z,2.40
2018-09-02T20:40:00.378Z,2.20
2018-09-02T20:41:00.374Z,2.20
2018-09-02T20:42:00.351Z,2.40
2018-09-02T20:44:50.506Z,1.90
2018-09-02T20:45:34.411Z,2.30
2018-09-02T20:46:34.389Z,2.10
2018-09-02T20:47:34.379Z,2.00
2018-09-02T20:48:34.362Z,2.20
2018-09-02T20:49:34.346Z,2.00
2018-09-02T20:50:34.328Z,2.20
2018-09-02T20:51:34.310Z,2.30
2018-09-02T20:52:34.311Z,2.10
2018-09-02T20:53:34.279Z,2.30
2018-09-02T20:54:34.274Z,2.00
2018-09-02T20:55:34.307Z,2.00
2018-09-02T20:56:34.252Z,1.90
2018-09-02T20:57:34.224Z,2.30
2018-09-02T20:58:34.211Z,2.00
2018-09-02T20:59:34.175Z,2.30
2018-09-02T21:00:34.169Z,2.10
2018-09-02T21:01:34.144Z,2.10
2018-09-02T21:02:34.136Z,2.30
2018-09-02T21:03:34.113Z,2.10
2018-09-02T21:04:34.097Z,1.90
2018-09-02T21:05:34.084Z,2.10
2018-09-02T21:06:34.057Z,2.10
2018-09-02T21:07:34.058Z,2.00
2018-09-02T21:08:34.033Z,2.20
2018-09-02T21:09:34.016Z,2.20
2018-09-02T21:10:34.056Z,2.10
2018-09-02T21:11:33.987Z,2.10
2018-09-02T21:12:33.985Z,2.10
2018-09-02T21:13:33.951Z,2.10
2018-09-02T21:14:33.958Z,2.40
2018-09-02T21:15:33.919Z,2.50
2018-09-02T21:16:33.895Z,2.30
2018-09-02T21:17:33.897Z,2.30
2018-09-02T21:18:33.874Z,2.30
2018-09-02T21:19:33.843Z,2.10